createdAt,value
2022-10-26T00:01:11.351Z,93.78
2022-10-26T00:03:40.019Z,93.79
2022-10-26T00:06:15.690Z,93.76
2022-10-26T00:08:42.457Z,93.62
2022-10-26T00:11:09.185Z,93.52
2022-10-26T00:13:36.936Z,93.34
2022-10-26T00:16:24.937Z,93.30
2022-10-26T00:18:51.373Z,93.38
2022-10-26T00:21:18.524Z,93.42
2022-10-26T00:23:45.097Z,93.33
2022-10-26T00:26:11.992Z,93.47
2022-10-26T00:28:38.571Z,93.71
2022-10-26T00:31:08.733Z,93.65
2022-10-26T00:33:35.957Z,93.60
2022-10-26T00:36:02.666Z,94.57
2022-10-26T00:38:29.199Z,93.72
2022-10-26T00:40:55.819Z,93.76
2022-10-26T00:43:22.178Z,93.72
2022-10-26T00:45:55.160Z,93.79
2022-10-26T00:48:31.677Z,93.60
2022-10-26T00:51:01.186Z,93.96
2022-10-26T00:53:28.894Z,93.44
2022-10-26T00:55:56.620Z,93.31
2022-10-26T00:58:24.396Z,93.26
2022-10-26T01:00:51.492Z,93.23
2022-10-26T01:03:18.427Z,93.19
2022-10-26T01:05:47.466Z,93.18
2022-10-26T01:08:17.139Z,93.13
2022-10-26T01:10:44.158Z,93.23
2022-10-26T01:13:13.171Z,93.63
2022-10-26T01:15:55.311Z,93.38
2022-10-26T01:18:35.279Z,93.20
2022-10-26T01:21:29.579Z,93.32
2022-10-26T01:24:35.047Z,93.21
2022-10-26T01:27:04.488Z,93.29
2022-10-26T01:30:01.605Z,93.44
2022-10-26T01:32:40.034Z,93.15
2022-10-26T01:35:16.189Z,93.20
2022-10-26T01:37:48.247Z,93.38
2022-10-26T01:40:25.382Z,93.38
2022-10-26T01:42:55.262Z,93.75
2022-10-26T01:45:22.249Z,93.08
2022-10-26T01:47:49.827Z,93.27
2022-10-26T01:50:18.594Z,93.11
2022-10-26T01:52:44.962Z,93.24
2022-10-26T01:55:39.372Z,93.35
2022-10-26T01:58:24.232Z,93.26
2022-10-26T02:01:02.065Z,93.27
2022-10-26T02:03:40.386Z,93.07
2022-10-26T02:06:14.389Z,93.17
2022-10-26T02:08:52.332Z,92.86
2022-10-26T02:11:36.129Z,92.99
2022-10-26T02:17:11.772Z,92.90
2022-10-26T02:19:52.726Z,92.71
2022-10-26T02:22:34.122Z,92.89
2022-10-26T02:25:07.164Z,92.96
2022-10-26T02:27:38.365Z,93.20
2022-10-26T02:30:06.080Z,93.23
2022-10-26T02:32:37.585Z,93.38
2022-10-26T02:35:05.698Z,93.03
2022-10-26T02:37:35.214Z,93.10
2022-10-26T02:40:06.075Z,93.39
2022-10-26T02:42:33.566Z,93.37
2022-10-26T02:45:09.967Z,93.56
2022-10-26T02:47:36.528Z,93.82
2022-10-26T02:50:03.671Z,93.83
2022-10-26T02:52:42.272Z,93.84
2022-10-26T02:55:36.731Z,93.77
2022-10-26T02:58:11.837Z,93.72
2022-10-26T03:00:38.939Z,93.72
2022-10-26T03:03:05.403Z,93.81
2022-10-26T03:05:33.010Z,93.97
2022-10-26T03:08:01.059Z,94.09
2022-10-26T03:10:27.637Z,94.20
2022-10-26T03:12:54.492Z,94.23
2022-10-26T03:15:21.006Z,94.36
2022-10-26T03:17:47.828Z,94.50
2022-10-26T03:20:14.602Z,94.36
2022-10-26T03:22:41.077Z,94.14
2022-10-26T03:27:35.390Z,94.41
2022-10-26T03:30:01.865Z,94.41
2022-10-26T03:32:28.268Z,94.36
2022-10-26T03:34:54.718Z,94.41
2022-10-26T03:37:21.103Z,94.45
2022-10-26T03:39:47.539Z,94.52
2022-10-26T03:42:13.939Z,94.55
2022-10-26T03:44:40.428Z,94.59
2022-10-26T03:47:06.819Z,94.54
2022-10-26T03:49:33.369Z,94.91
2022-10-26T03:51:59.750Z,94.93
2022-10-26T03:54:26.214Z,95.25
2022-10-26T03:56:55.184Z,95.06
2022-10-26T03:59:21.994Z,94.81
2022-10-26T04:01:50.601Z,94.95
2022-10-26T04:04:19.329Z,95.00
2022-10-26T04:09:13.114Z,94.52
2022-10-26T04:11:39.519Z,94.19
2022-10-26T04:14:05.963Z,93.99
2022-10-26T04:16:33.467Z,94.03
2022-10-26T04:19:00.635Z,94.16
2022-10-26T04:21:27.066Z,94.30
2022-10-26T04:23:53.564Z,94.45
2022-10-26T04:26:20.319Z,94.37
2022-10-26T04:28:46.739Z,94.37
2022-10-26T04:31:13.134Z,94.59
2022-10-26T04:33:39.734Z,94.53
2022-10-26T04:36:06.541Z,94.78
2022-10-26T04:38:33.083Z,94.88
2022-10-26T04:40:59.509Z,94.63
2022-10-26T04:43:25.990Z,95.35
2022-10-26T04:45:57.073Z,95.20
2022-10-26T04:50:51.867Z,94.74
2022-10-26T04:53:18.266Z,95.22
2022-10-26T04:55:44.924Z,95.25
2022-10-26T04:58:11.404Z,95.47
2022-10-26T05:00:37.838Z,95.15
2022-10-26T05:03:06.610Z,95.07
2022-10-26T05:05:34.965Z,95.04
2022-10-26T05:08:01.578Z,94.94
2022-10-26T05:10:28.797Z,95.05
2022-10-26T05:12:57.250Z,95.42
2022-10-26T05:15:23.656Z,95.15
2022-10-26T05:18:06.356Z,95.48
2022-10-26T05:20:34.872Z,95.39
2022-10-26T05:23:07.107Z,95.03
2022-10-26T05:25:38.023Z,95.24
2022-10-26T05:28:10.810Z,95.29
2022-10-26T05:30:39.515Z,95.48
2022-10-26T05:33:07.615Z,95.80
2022-10-26T05:35:34.266Z,95.86
2022-10-26T05:38:07.407Z,95.91
2022-10-26T05:40:34.161Z,95.97
2022-10-26T05:43:02.041Z,96.06
2022-10-26T05:45:29.283Z,95.82
2022-10-26T05:47:58.603Z,95.93
2022-10-26T05:50:28.372Z,95.92
2022-10-26T05:52:55.855Z,96.00
2022-10-26T05:55:22.931Z,96.24
2022-10-26T05:57:49.916Z,96.19
2022-10-26T06:00:19.917Z,95.99
2022-10-26T06:03:08.135Z,96.07
2022-10-26T06:05:50.632Z,96.11
2022-10-26T06:08:17.246Z,96.08
2022-10-26T06:10:43.923Z,96.57
2022-10-26T06:13:10.595Z,96.46
2022-10-26T06:15:49.012Z,96.53
2022-10-26T06:18:35.188Z,96.59
2022-10-26T06:21:34.012Z,96.35
2022-10-26T06:24:14.610Z,96.48
2022-10-26T06:27:02.703Z,96.37
2022-10-26T06:29:49.935Z,96.42
2022-10-26T06:32:17.556Z,96.28
2022-10-26T06:34:48.739Z,95.84
2022-10-26T06:37:15.591Z,96.16
2022-10-26T06:39:52.602Z,96.04
2022-10-26T06:42:21.492Z,95.99
2022-10-26T06:44:48.574Z,95.72
2022-10-26T06:47:23.440Z,96.03
2022-10-26T06:50:24.219Z,96.05
2022-10-26T06:53:16.601Z,96.08
2022-10-26T06:55:46.209Z,96.20
2022-10-26T06:58:21.639Z,95.84
2022-10-26T07:00:50.125Z,95.66
2022-10-26T07:03:16.975Z,95.59
2022-10-26T07:05:45.241Z,95.55
2022-10-26T07:08:11.741Z,95.38
2022-10-26T07:10:39.273Z,95.34
2022-10-26T07:13:06.687Z,95.40
2022-10-26T07:15:34.551Z,95.23
2022-10-26T07:18:03.174Z,95.17
2022-10-26T07:20:29.608Z,95.25
2022-10-26T07:22:57.049Z,95.25
2022-10-26T07:25:25.293Z,95.02
2022-10-26T07:27:52.579Z,94.81
2022-10-26T07:30:19.082Z,94.83
2022-10-26T07:32:45.527Z,94.64
2022-10-26T07:35:12.019Z,94.49
2022-10-26T07:37:38.521Z,94.33
2022-10-26T07:40:06.937Z,94.39
2022-10-26T07:42:34.381Z,94.23
2022-10-26T07:45:00.874Z,94.03
2022-10-26T07:47:27.295Z,93.96
2022-10-26T07:49:53.718Z,93.69
2022-10-26T07:52:20.106Z,93.77
2022-10-26T07:54:46.510Z,93.64
2022-10-26T07:57:12.924Z,93.54
2022-10-26T07:59:39.560Z,93.45
2022-10-26T08:02:06.148Z,93.34
2022-10-26T08:04:32.809Z,93.31
2022-10-26T08:06:59.263Z,93.18
2022-10-26T08:09:25.671Z,93.10
2022-10-26T08:11:52.246Z,92.87
2022-10-26T08:14:18.645Z,92.76
2022-10-26T08:16:45.637Z,92.83
2022-10-26T08:19:12.049Z,92.60
2022-10-26T08:21:40.440Z,92.45
2022-10-26T08:24:07.828Z,92.37
2022-10-26T08:26:34.324Z,92.13
2022-10-26T08:29:00.735Z,92.21
2022-10-26T08:31:27.128Z,91.95
2022-10-26T08:33:53.580Z,91.84
2022-10-26T08:36:26.062Z,91.57
2022-10-26T08:38:52.736Z,91.63
2022-10-26T08:41:34.957Z,91.66
2022-10-26T08:44:20.689Z,91.65
2022-10-26T08:46:53.452Z,91.63
2022-10-26T08:49:30.924Z,91.59
2022-10-26T08:52:01.451Z,91.34
2022-10-26T08:54:55.911Z,91.17
2022-10-26T08:57:25.186Z,91.30
2022-10-26T09:00:00.392Z,91.31
2022-10-26T09:02:27.052Z,90.98
2022-10-26T09:04:55.169Z,90.89
2022-10-26T09:07:45.959Z,90.83
2022-10-26T09:10:25.744Z,90.84
2022-10-26T09:13:04.256Z,90.95
2022-10-26T09:15:48.837Z,90.81
2022-10-26T09:18:43.253Z,90.59
2022-10-26T09:21:25.435Z,90.73
2022-10-26T09:24:03.918Z,90.60
2022-10-26T09:26:54.718Z,90.46
2022-10-26T09:29:28.783Z,90.88
2022-10-26T09:31:57.311Z,91.14
2022-10-26T09:34:31.571Z,91.03
2022-10-26T09:36:58.457Z,91.19
2022-10-26T09:39:36.673Z,91.26
2022-10-26T09:42:10.313Z,91.60
2022-10-26T09:44:47.728Z,91.72
2022-10-26T09:47:27.827Z,91.78
2022-10-26T09:49:58.705Z,91.85
2022-10-26T09:52:25.131Z,92.20
2022-10-26T09:54:51.598Z,92.74
2022-10-26T09:57:20.257Z,93.02
2022-10-26T09:59:47.970Z,93.32
2022-10-26T10:02:37.670Z,94.38
2022-10-26T10:08:24.454Z,97.35
2022-10-26T10:10:56.810Z,100.00
2022-10-26T10:13:25.508Z,100.00
2022-10-26T10:16:20.739Z,100.00
2022-10-26T10:18:55.668Z,100.00
2022-10-26T10:21:36.814Z,100.00
2022-10-26T10:24:25.379Z,100.00
2022-10-26T10:27:05.782Z,100.00
2022-10-26T10:29:34.426Z,100.00
2022-10-26T10:32:03.389Z,100.00
2022-10-26T10:34:31.502Z,100.00
2022-10-26T10:36:59.395Z,100.00
2022-10-26T10:39:33.332Z,100.00
2022-10-26T10:42:01.101Z,100.00
2022-10-26T10:44:31.402Z,100.00
2022-10-26T10:47:04.062Z,100.00
2022-10-26T10:49:31.332Z,100.00
2022-10-26T10:51:58.527Z,100.00
2022-10-26T10:54:36.503Z,100.00
2022-10-26T10:57:25.979Z,100.00
2022-10-26T11:00:12.011Z,100.00
2022-10-26T11:03:16.695Z,100.00
2022-10-26T11:06:05.737Z,100.00
2022-10-26T11:08:57.151Z,100.00
2022-10-26T11:11:27.271Z,100.00
2022-10-26T11:14:02.742Z,100.00
2022-10-26T11:16:44.162Z,100.00
2022-10-26T11:19:22.272Z,100.00
2022-10-26T11:21:53.835Z,100.00
2022-10-26T11:24:38.210Z,100.00
2022-10-26T11:27:18.822Z,100.00
2022-10-26T11:30:13.662Z,100.00
2022-10-26T11:32:45.891Z,100.00
2022-10-26T11:35:18.659Z,100.00
2022-10-26T11:38:04.477Z,100.00
2022-10-26T11:41:01.855Z,100.00
2022-10-26T11:43:37.220Z,100.00
2022-10-26T11:46:19.276Z,100.00
2022-10-26T11:49:10.799Z,100.00
2022-10-26T11:51:50.710Z,100.00
2022-10-26T11:54:25.561Z,100.00
2022-10-26T11:56:55.542Z,100.00
2022-10-26T11:59:28.009Z,100.00
2022-10-26T12:02:04.771Z,100.00
2022-10-26T12:04:35.571Z,100.00
2022-10-26T12:07:08.381Z,100.00
2022-10-26T12:09:38.814Z,100.00
2022-10-26T12:12:14.465Z,100.00
2022-10-26T12:14:54.038Z,100.00
2022-10-26T12:17:43.731Z,100.00
2022-10-26T12:20:41.563Z,100.00
2022-10-26T12:23:12.178Z,100.00
2022-10-26T12:25:40.257Z,100.00
2022-10-26T12:28:39.454Z,100.00
2022-10-26T12:31:36.974Z,100.00
2022-10-26T12:34:14.912Z,100.00
2022-10-26T12:36:56.645Z,100.00
2022-10-26T12:39:36.248Z,100.00
2022-10-26T12:42:05.736Z,100.00
2022-10-26T12:45:07.411Z,100.00
2022-10-26T12:47:33.769Z,100.00
2022-10-26T12:50:06.565Z,100.00
2022-10-26T12:52:54.851Z,100.00
2022-10-26T12:55:42.620Z,100.00
2022-10-26T12:58:38.432Z,100.00
2022-10-26T13:01:30.801Z,100.00
2022-10-26T13:04:15.346Z,100.00
2022-10-26T13:06:54.506Z,100.00
2022-10-26T13:09:24.938Z,100.00
2022-10-26T13:11:55.331Z,100.00
2022-10-26T13:14:25.643Z,100.00
2022-10-26T13:16:52.711Z,100.00
2022-10-26T13:19:30.534Z,100.00
2022-10-26T13:21:59.678Z,100.00
2022-10-26T13:24:29.688Z,100.00
2022-10-26T13:27:05.147Z,100.00
2022-10-26T13:29:32.931Z,100.00
2022-10-26T13:32:00.261Z,100.00
2022-10-26T13:34:30.955Z,100.00
2022-10-26T13:37:00.614Z,100.00
2022-10-26T13:39:31.606Z,100.00
2022-10-26T13:41:59.686Z,100.00
2022-10-26T13:44:35.199Z,100.00
2022-10-26T13:47:10.690Z,100.00
2022-10-26T13:49:40.470Z,100.00
2022-10-26T13:52:21.218Z,100.00
2022-10-26T13:54:55.877Z,100.00
2022-10-26T13:57:37.456Z,100.00
2022-10-26T14:00:23.203Z,100.00
2022-10-26T14:02:49.983Z,100.00
2022-10-26T14:05:18.331Z,100.00
2022-10-26T14:07:49.478Z,100.00
2022-10-26T14:10:48.501Z,100.00
2022-10-26T14:13:18.149Z,100.00
2022-10-26T14:15:46.257Z,100.00
2022-10-26T14:18:26.489Z,100.00
2022-10-26T14:20:57.051Z,100.00
2022-10-26T14:23:27.355Z,100.00
2022-10-26T14:25:59.088Z,100.00
2022-10-26T14:28:31.893Z,100.00
2022-10-26T14:31:20.744Z,100.00
2022-10-26T14:33:47.385Z,100.00
2022-10-26T14:36:15.612Z,100.00
2022-10-26T14:38:44.822Z,100.00
2022-10-26T14:41:15.742Z,100.00
2022-10-26T14:43:43.854Z,100.00
2022-10-26T14:46:18.306Z,100.00
2022-10-26T14:48:54.706Z,100.00
2022-10-26T14:51:26.708Z,100.00
2022-10-26T14:53:58.635Z,100.00
2022-10-26T14:56:43.323Z,100.00
2022-10-26T14:59:31.268Z,100.00
2022-10-26T15:02:21.299Z,100.00
2022-10-26T15:05:01.594Z,100.00
2022-10-26T15:07:36.689Z,100.00
2022-10-26T15:10:03.502Z,100.00
2022-10-26T15:12:34.745Z,100.00
2022-10-26T15:15:11.172Z,100.00
2022-10-26T15:17:42.260Z,100.00
2022-10-26T15:20:17.549Z,100.00
2022-10-26T15:22:52.607Z,100.00
2022-10-26T15:25:26.189Z,100.00
2022-10-26T15:27:53.048Z,100.00
2022-10-26T15:30:27.824Z,100.00
2022-10-26T15:32:55.866Z,100.00
2022-10-26T15:35:28.334Z,100.00
2022-10-26T15:37:56.266Z,100.00
2022-10-26T15:42:59.742Z,100.00
2022-10-26T15:45:31.703Z,100.00
2022-10-26T15:48:00.342Z,100.00
2022-10-26T15:50:28.745Z,100.00
2022-10-26T15:53:01.588Z,100.00
2022-10-26T15:55:30.120Z,100.00
2022-10-26T15:57:56.581Z,100.00
2022-10-26T16:00:23.162Z,100.00
2022-10-26T16:02:49.694Z,100.00
2022-10-26T16:05:16.872Z,100.00
2022-10-26T16:07:46.433Z,100.00
2022-10-26T16:10:17.558Z,100.00
2022-10-26T16:12:45.088Z,100.00
2022-10-26T16:15:17.354Z,100.00
2022-10-26T16:17:44.081Z,100.00
2022-10-26T16:20:14.614Z,100.00
2022-10-26T16:22:46.740Z,100.00
2022-10-26T16:25:13.878Z,100.00
2022-10-26T16:27:40.707Z,100.00
2022-10-26T16:30:07.808Z,100.00
2022-10-26T16:32:34.198Z,100.00
2022-10-26T16:35:00.794Z,100.00
2022-10-26T16:37:29.187Z,100.00
2022-10-26T16:39:55.557Z,100.00
2022-10-26T16:42:22.058Z,100.00
2022-10-26T16:44:48.532Z,100.00
2022-10-26T16:47:14.962Z,100.00
2022-10-26T16:49:43.294Z,100.00
2022-10-26T16:52:10.010Z,100.00
2022-10-26T16:54:36.426Z,100.00
2022-10-26T16:57:03.228Z,100.00
2022-10-26T16:59:29.825Z,100.00
2022-10-26T17:01:56.918Z,100.00
2022-10-26T17:04:23.854Z,100.00
2022-10-26T17:06:50.535Z,100.00
2022-10-26T17:09:16.955Z,100.00
2022-10-26T17:11:43.361Z,100.00
2022-10-26T17:14:09.863Z,100.00
2022-10-26T17:16:36.279Z,100.00
2022-10-26T17:19:02.735Z,100.00
2022-10-26T17:21:31.574Z,100.00
2022-10-26T17:23:58.642Z,100.00
2022-10-26T17:26:25.119Z,100.00
2022-10-26T17:28:52.757Z,100.00
2022-10-26T17:31:19.283Z,100.00
2022-10-26T17:33:50.111Z,100.00
2022-10-26T17:36:20.208Z,100.00
2022-10-26T17:38:51.055Z,100.00
2022-10-26T17:41:19.549Z,100.00
2022-10-26T17:43:47.270Z,100.00
2022-10-26T17:46:20.468Z,100.00
2022-10-26T17:48:47.126Z,100.00
2022-10-26T17:51:16.296Z,100.00
2022-10-26T17:53:42.761Z,100.00
2022-10-26T17:56:15.407Z,100.00
2022-10-26T17:58:41.891Z,100.00
2022-10-26T18:01:10.906Z,100.00
2022-10-26T18:03:38.666Z,100.00
2022-10-26T18:06:09.688Z,100.00
2022-10-26T18:08:37.829Z,100.00
2022-10-26T18:11:05.569Z,100.00
2022-10-26T18:13:33.992Z,100.00
2022-10-26T18:16:16.256Z,100.00
2022-10-26T18:18:50.070Z,100.00
2022-10-26T18:21:19.538Z,100.00
2022-10-26T18:23:46.811Z,100.00
2022-10-26T18:26:17.158Z,100.00
2022-10-26T18:28:44.559Z,100.00
2022-10-26T18:31:14.606Z,100.00
2022-10-26T18:33:41.507Z,100.00
2022-10-26T18:36:18.586Z,100.00
2022-10-26T18:38:48.126Z,100.00
2022-10-26T18:41:16.703Z,100.00
2022-10-26T18:43:45.425Z,100.00
2022-10-26T18:46:20.785Z,100.00
2022-10-26T18:48:48.200Z,100.00
2022-10-26T18:51:17.283Z,100.00
2022-10-26T18:53:45.244Z,100.00
2022-10-26T18:56:14.470Z,100.00
2022-10-26T18:58:46.804Z,100.00
2022-10-26T19:01:17.825Z,100.00
2022-10-26T19:03:45.374Z,100.00
2022-10-26T19:06:18.241Z,100.00
2022-10-26T19:08:45.297Z,100.00
2022-10-26T19:11:16.339Z,100.00
2022-10-26T19:13:43.396Z,100.00
2022-10-26T19:16:17.251Z,100.00
2022-10-26T19:18:48.732Z,100.00
2022-10-26T19:21:19.199Z,100.00
2022-10-26T19:23:47.899Z,100.00
2022-10-26T19:26:17.783Z,100.00
2022-10-26T19:28:44.259Z,100.00
2022-10-26T19:31:13.138Z,100.00
2022-10-26T19:33:39.819Z,100.00
2022-10-26T19:36:10.410Z,100.00
2022-10-26T19:38:36.905Z,100.00
2022-10-26T19:41:06.129Z,100.00
2022-10-26T19:43:34.643Z,100.00
2022-10-26T19:46:08.683Z,100.00
2022-10-26T19:48:35.302Z,100.00
2022-10-26T19:51:01.728Z,100.00
2022-10-26T19:53:28.370Z,100.00
2022-10-26T19:55:59.652Z,100.00
2022-10-26T19:58:28.666Z,100.00
2022-10-26T20:01:00.313Z,100.00
2022-10-26T20:03:28.921Z,100.00
2022-10-26T20:05:57.025Z,100.00
2022-10-26T20:08:24.120Z,100.00
2022-10-26T20:10:53.536Z,100.00
2022-10-26T20:13:20.030Z,100.00
2022-10-26T20:15:46.820Z,100.00
2022-10-26T20:18:13.573Z,100.00
2022-10-26T20:20:40.014Z,100.00
2022-10-26T20:23:08.023Z,100.00
2022-10-26T20:25:35.798Z,100.00
2022-10-26T20:28:03.396Z,100.00
2022-10-26T20:30:32.647Z,100.00
2022-10-26T20:32:59.647Z,100.00
2022-10-26T20:35:26.065Z,100.00
2022-10-26T20:37:53.805Z,100.00
2022-10-26T20:40:24.022Z,100.00
2022-10-26T20:42:52.389Z,100.00
2022-10-26T20:45:26.543Z,100.00
2022-10-26T20:47:54.551Z,100.00
2022-10-26T20:50:26.187Z,100.00
2022-10-26T20:53:02.952Z,100.00
2022-10-26T20:55:36.177Z,100.00
2022-10-26T20:58:09.591Z,100.00
2022-10-26T21:00:43.369Z,100.00
2022-10-26T21:03:11.447Z,100.00
2022-10-26T21:05:46.843Z,100.00
2022-10-26T21:08:13.600Z,100.00
2022-10-26T21:10:40.076Z,100.00
2022-10-26T21:13:06.562Z,100.00
2022-10-26T21:15:35.451Z,100.00
2022-10-26T21:18:01.992Z,100.00
2022-10-26T21:20:29.034Z,100.00
2022-10-26T21:22:55.527Z,100.00
2022-10-26T21:25:21.926Z,100.00
2022-10-26T21:27:48.669Z,100.00
2022-10-26T21:30:15.207Z,100.00
2022-10-26T21:32:41.604Z,100.00
2022-10-26T21:35:08.180Z,100.00
2022-10-26T21:37:34.581Z,100.00
2022-10-26T21:40:01.077Z,100.00
2022-10-26T21:42:27.471Z,100.00
2022-10-26T21:44:53.896Z,100.00
2022-10-26T21:47:20.283Z,100.00
2022-10-26T21:49:46.681Z,100.00
2022-10-26T21:52:13.118Z,100.00
2022-10-26T21:54:39.517Z,100.00
2022-10-26T21:57:05.985Z,100.00
2022-10-26T21:59:32.426Z,100.00
2022-10-26T22:01:59.056Z,100.00
2022-10-26T22:04:25.666Z,100.00
2022-10-26T22:06:52.078Z,100.00
2022-10-26T22:09:18.572Z,100.00
2022-10-26T22:11:45.012Z,100.00
2022-10-26T22:14:14.265Z,100.00
2022-10-26T22:16:40.675Z,100.00
2022-10-26T22:19:08.203Z,100.00
2022-10-26T22:21:37.803Z,100.00
2022-10-26T22:24:04.751Z,100.00
2022-10-26T22:26:33.841Z,100.00
2022-10-26T22:29:00.272Z,100.00
2022-10-26T22:31:32.840Z,100.00
2022-10-26T22:34:04.814Z,100.00
2022-10-26T22:36:33.970Z,100.00
2022-10-26T22:39:00.576Z,100.00
2022-10-26T22:41:27.117Z,100.00
2022-10-26T22:43:53.534Z,100.00
2022-10-26T22:46:25.016Z,100.00
2022-10-26T22:48:59.997Z,100.00
2022-10-26T22:51:29.399Z,100.00
2022-10-26T22:53:57.935Z,100.00
2022-10-26T22:58:53.398Z,100.00
2022-10-26T23:01:23.096Z,100.00
2022-10-26T23:03:49.954Z,100.00
2022-10-26T23:06:18.779Z,100.00
2022-10-26T23:08:45.560Z,100.00
2022-10-26T23:11:14.970Z,100.00
2022-10-26T23:13:41.755Z,100.00
2022-10-26T23:16:17.888Z,100.00
2022-10-26T23:18:44.401Z,100.00
2022-10-26T23:21:12.757Z,100.00
2022-10-26T23:23:39.973Z,100.00
2022-10-26T23:26:09.293Z,100.00
2022-10-26T23:28:36.399Z,100.00
2022-10-26T23:31:03.686Z,100.00
2022-10-26T23:33:30.505Z,100.00
2022-10-26T23:35:57.434Z,100.00
2022-10-26T23:38:24.676Z,100.00
2022-10-26T23:40:52.828Z,100.00
2022-10-26T23:43:20.061Z,100.00
2022-10-26T23:45:47.353Z,100.00
2022-10-26T23:48:14.115Z,100.00
2022-10-26T23:50:44.608Z,100.00
2022-10-26T23:53:12.348Z,100.00
2022-10-26T23:55:38.835Z,100.00
2022-10-26T23:58:05.324Z,100.00
